Latest Weather Observations for Coondewanna

IDW60801

Issued at 3:35 am WST Sunday 26 October 2014 (issued every 30 minutes, with the page automatically refreshed every 10 minutes)

About weather observations | Map of weather stations | Latest weather observations for WA | Other Formats
Station Details ID: 505051 Name: COONDEWANNA Lat: -22.96 Lon: 118.81 Height: 697.63 m
Data from the previous 72 hours. | See also: Recent months for locations in Western Australia
Date/Time
WST
Temp
°C
App
Temp
°C
Dew
Point
Rel
Hum
%
Delta-T
°C
Wind Press
QNH
hPa
Press
MSL
hPa
Rain
since 9 am
mm
Dir
 
Spd
km/h
Gust
km/h
Spd
kts
Gust
kts
26/03:30am 19.9 16.1 1.8 30 8.6 SSE 11 13 6 7 1017.6 1012.9 0.0
26/03:00am 21.1 18.1 1.9 28 9.2 SSW 7 13 4 7 1017.4 1012.7 0.0
26/02:30am 20.9 17.6 2.2 29 9.0 SW 9 11 5 6 1017.3 1012.6 0.0
26/02:00am 21.1 18.7 1.9 28 9.2 SW 4 6 2 3 1017.4 1012.7 0.0
26/01:30am 22.2 18.8 1.8 26 9.9 W 9 13 5 7 1017.7 1013.0 0.0
26/01:00am 21.6 18.8 2.3 28 9.4 W 6 7 3 4 1018.0 1013.4 0.0
26/12:30am 22.5 18.4 2.1 26 9.9 W 13 13 7 7 1018.3 1013.6 0.0
26/12:00am 23.0 19.6 1.9 25 10.3 W 9 9 5 5 1018.5 1013.8 0.0
 
Date/Time
WST
Temp
°C
App
Temp
°C
Dew
Point
Rel
Hum
%
Delta-T
°C
Wind Press
QNH
hPa
Press
MSL
hPa
Rain
since 9 am
mm
Dir
 
Spd
km/h
Gust
km/h
Spd
kts
Gust
kts
25/11:30pm 23.1 20.6 1.4 24 10.5 SSW 4 7 2 4 1018.5 1013.8 0.0
25/11:00pm 25.9 22.1 1.9 21 11.9 SW 11 13 6 7 1018.4 1013.7 0.0
25/10:30pm 26.9 22.6 1.3 19 12.7 SW 13 15 7 8 1018.5 1013.8 0.0
25/10:00pm 28.0 23.4 1.5 18 13.2 SSW 15 20 8 11 1018.7 1014.0 0.0
25/09:30pm 28.8 23.2 1.3 17 13.8 SW 20 26 11 14 1018.7 1014.0 0.0
25/09:00pm 29.5 23.5 1.1 16 14.2 SW 22 30 12 16 1018.6 1013.9 0.0
25/08:30pm 30.0 24.3 0.6 15 14.7 SW 20 28 11 15 1018.4 1013.7 0.0
25/08:00pm 30.7 24.4 -0.8 13 15.4 SW 22 33 12 18 1018.1 1013.5 0.0
25/07:30pm 31.0 25.2 -1.7 12 15.8 SW 19 26 10 14 1017.9 1013.3 0.0
25/07:00pm 31.7 25.6 -2.3 11 16.3 SW 20 30 11 16 1017.6 1012.9 0.0
25/06:30pm 32.5 26.3 -3.0 10 16.9 SW 20 28 11 15 1017.2 1012.5 0.0
25/06:00pm 33.7 26.9 -2.1 10 17.5 WSW 24 33 13 18 1016.9 1012.2 0.0
25/05:30pm 34.6 27.9 -1.4 10 17.9 SW 24 35 13 19 1016.5 1011.8 0.0
25/05:00pm 34.9 28.2 -1.2 10 18.0 SW 24 35 13 19 1016.4 1011.7 0.0
25/04:30pm 35.3 27.7 -2.3 9 18.5 SW 28 39 15 21 1016.4 1011.7 0.0
25/04:03pm 35.9 28.3 -1.9 9 18.8 WSW 28 54 15 29 1016.4 1011.7 0.0
25/04:00pm 36.0 29.2 -1.8 9 18.8 SW 24 54 13 29 1016.3 1011.6 0.0
25/03:30pm 35.5 29.0 -2.2 9 18.6 SW 22 35 12 19 1016.3 1011.6 0.0
25/03:00pm 36.2 29.4 -1.7 9 18.9 W 24 35 13 19 1016.3 1011.6 0.0
25/02:30pm 35.9 29.9 -1.9 9 18.8 WSW 20 32 11 17 1016.5 1011.8 0.0
25/02:00pm 36.4 31.0 -1.5 9 19.0 SW 17 37 9 20 1016.8 1012.1 0.0
25/01:30pm 36.0 30.2 -0.4 10 18.5 W 20 32 11 17 1017.1 1012.4 0.0
25/01:00pm 36.3 30.3 -1.6 9 19.0 W 20 32 11 17 1017.4 1012.7 0.0
25/12:30pm 35.1 29.2 -1.1 10 18.1 W 20 32 11 17 1017.6 1012.9 0.0
25/12:00pm 35.7 29.5 -0.6 10 18.4 WSW 22 41 12 22 1017.7 1013.0 0.0
25/11:30am 34.7 28.0 -1.4 10 18.0 SW 24 33 13 18 1018.3 1013.6 0.0
25/11:00am 34.6 28.2 -1.4 10 17.9 WSW 22 35 12 19 1018.6 1013.9 0.0
25/10:30am 33.9 28.0 -0.7 11 17.3 SW 20 35 11 19 1018.9 1014.2 0.0
25/10:00am 33.8 27.9 -0.7 11 17.2 SW 20 30 11 16 1019.0 1014.3 0.0
25/09:30am 33.0 26.4 -0.2 12 16.7 SW 24 33 13 18 1019.0 1014.3 0.0
25/09:00am 32.0 26.7 -0.9 12 16.2 SW 17 26 9 14 1018.9 1014.2 0.0
25/08:30am 30.4 25.0 -1.1 13 15.3 SW 17 22 9 12 1019.0 1014.3 0.0
25/08:00am 29.0 24.5 -0.2 15 14.2 WSW 13 20 7 11 1019.0 1014.3 0.0
25/07:30am 27.6 23.2 0.4 17 13.3 SW 13 17 7 9 1018.9 1014.2 0.0
25/07:00am 25.9 22.3 0.5 19 12.3 SW 9 13 5 7 1018.8 1014.1 0.0
25/06:30am 23.8 20.2 0.8 22 11.0 SW 9 11 5 6 1018.7 1014.0 0.0
25/06:00am 21.6 18.4 0.8 25 9.8 SW 7 9 4 5 1018.3 1013.6 0.0
25/05:30am 21.4 18.2 0.6 25 9.8 SW 7 15 4 8 1017.9 1013.3 0.0
25/05:00am 21.5 16.8 1.2 26 9.6 SW 15 17 8 9 1017.6 1012.9 0.0
25/04:30am 19.4 17.3 1.4 30 8.5 SW 2 6 1 3 1017.3 1012.6 0.0
25/04:00am 21.0 17.5 1.3 27 9.3 SSW 9 11 5 6 1017.2 1012.5 0.0
25/03:30am 22.5 18.2 0.9 24 10.3 SW 13 17 7 9 1017.0 1012.3 0.0
25/03:00am 22.6 18.0 1.6 25 10.1 S 15 15 8 8 1016.7 1012.0 0.0
25/02:30am 21.6 18.2 1.8 27 9.5 SE 9 11 5 6 1016.8 1012.1 0.0
25/02:00am 20.7 19.0 2.0 29 9.0 CALM 0 0 0 0 1016.9 1012.2 0.0
25/01:30am 23.4 20.4 1.7 24 10.6 SW 7 11 4 6 1017.1 1012.4 0.0
25/01:00am 24.9 20.7 1.7 22 11.4 SW 13 17 7 9 1017.0 1012.3 0.0
25/12:30am 24.0 20.3 2.2 24 10.7 W 11 13 6 7 1017.1 1012.4 0.0
25/12:00am 24.3 21.3 1.9 23 11.0 WSW 7 9 4 5 1017.1 1012.4 0.0
 
Date/Time
WST
Temp
°C
App
Temp
°C
Dew
Point
Rel
Hum
%
Delta-T
°C
Wind Press
QNH
hPa
Press
MSL
hPa
Rain
since 9 am
mm
Dir
 
Spd
km/h
Gust
km/h
Spd
kts
Gust
kts
24/11:30pm 26.2 22.7 1.5 20 12.2 W 9 9 5 5 1017.0 1012.3 0.0
24/11:00pm 26.3 23.4 1.6 20 12.2 W 6 7 3 4 1016.9 1012.2 0.0
24/10:30pm 26.5 23.1 1.7 20 12.3 WSW 9 13 5 7 1016.7 1012.0 0.0
24/10:00pm 26.4 23.5 1.7 20 12.3 WSW 6 7 3 4 1016.1 1011.4 0.0
24/09:30pm 27.1 24.0 1.5 19 12.7 WSW 7 9 4 5 1016.2 1011.5 0.0
24/09:00pm 29.7 25.8 1.2 16 14.3 SW 11 13 6 7 1016.0 1011.3 0.0
24/08:30pm 31.0 26.8 1.4 15 15.1 SW 13 15 7 8 1015.7 1011.0 0.0
24/08:00pm 31.1 26.8 3.2 17 14.6 SSW 15 19 8 10 1015.3 1010.5 0.0
24/07:30pm 30.1 27.6 6.7 23 12.9 NW 9 11 5 6 1014.7 1010.0 0.0
24/07:00pm 31.6 29.0 4.4 18 14.6 WSW 7 9 4 5 1014.3 1009.6 0.0
24/06:30pm 33.8 29.0 2.6 14 16.5 S 17 24 9 13 1014.0 1009.2 0.0
24/06:19pm 33.7 26.4 2.5 14 16.4 SW 30 48 16 26 1014.1 1009.4 0.0
24/06:16pm 33.6 24.6 2.4 14 16.4 SSW 39 48 21 26 1013.9 1009.1 0.0
24/06:00pm 31.2 24.7 6.3 21 13.8 WNW 30 50 16 27 1014.5 1009.8 0.0
24/05:59pm 31.1 24.1 6.2 21 13.7 WNW 32 50 17 27 1014.5 1009.8 0.0
24/05:56pm 31.1 23.4 6.9 22 13.5 WNW 37 50 20 27 1014.2 1009.5 0.0
24/05:53pm 31.9 26.4 7.5 22 13.8 SW 26 37 14 20 1014.3 1009.6 0.0
24/05:50pm 32.5 23.6 6.7 20 14.4 W 43 52 23 28 1013.9 1009.1 0.0
24/05:30pm 34.2 30.6 2.9 14 16.6 NE 11 17 6 9 1013.4 1008.7 0.0
24/05:00pm 33.7 28.9 4.4 16 15.9 NE 19 26 10 14 1013.2 1008.5 0.0
24/04:30pm 35.4 32.9 3.8 14 17.1 S 6 9 3 5 1013.0 1008.3 0.0
24/04:00pm 35.3 31.7 2.7 13 17.4 SSE 11 20 6 11 1013.0 1008.3 0.0
24/03:30pm 35.4 32.0 1.7 12 17.7 SSE 9 15 5 8 1013.2 1008.5 0.0
24/03:00pm 35.5 32.7 1.8 12 17.7 S 6 11 3 6 1013.3 1008.6 0.0
24/02:30pm 35.7 32.7 1.9 12 17.8 NE 7 11 4 6 1013.5 1008.8 0.0
24/02:00pm 36.1 32.8 2.2 12 18.0 WSW 9 17 5 9 1014.0 1009.2 0.0
24/01:30pm 36.5 32.6 1.3 11 18.5 W 11 19 6 10 1014.4 1009.7 0.0
24/01:00pm 35.7 32.3 1.9 12 17.8 S 9 17 5 9 1014.7 1010.0 0.0
24/12:30pm 36.1 31.2 2.2 12 18.0 WNW 17 35 9 19 1015.0 1010.3 0.0
24/12:00pm 35.5 31.5 2.9 13 17.4 WNW 13 22 7 12 1015.5 1010.8 0.0
24/11:30am 34.8 31.7 3.4 14 16.9 W 9 19 5 10 1015.9 1011.2 0.0
24/11:00am 34.1 30.5 2.8 14 16.6 W 11 17 6 9 1016.2 1011.5 0.0
24/10:30am 33.7 30.2 3.5 15 16.2 SSE 11 15 6 8 1016.7 1012.0 0.0
24/10:00am 33.0 29.8 2.9 15 15.9 NNE 9 15 5 8 1017.1 1012.4 0.0
24/09:30am 31.0 28.2 3.1 17 14.6 SW 7 11 4 6 1017.4 1012.7 0.0
24/09:00am 30.2 27.6 3.3 18 14.0 S 6 15 3 8 1017.6 1012.9 -
24/08:30am 28.5 25.7 3.4 20 13.0 ESE 7 13 4 7 1017.6 1012.9 -
24/08:00am 27.1 24.4 2.9 21 12.3 SW 6 9 3 5 1017.6 1012.9 -
24/07:30am 26.7 23.9 3.2 22 12.0 ESE 7 9 4 5 1017.4 1012.7 -
24/07:00am 24.5 23.0 3.2 25 10.7 CALM 0 0 0 0 1017.3 1012.6 -
24/06:30am 21.6 18.4 3.3 30 9.1 E 9 11 5 6 1017.3 1012.6 -
24/06:00am 19.0 17.5 3.2 35 7.7 CALM 0 0 0 0 1017.0 1012.3 -
24/05:30am 18.6 15.9 2.9 35 7.5 ESE 6 7 3 4 1016.9 1012.2 -
24/05:00am 17.6 16.1 2.8 37 7.0 CALM 0 0 0 0 1016.8 1012.1 -
24/04:30am 18.5 17.0 2.8 35 7.5 CALM 0 0 0 0 1016.7 1012.0 -
24/04:00am 19.7 17.1 3.0 33 8.1 ESE 6 7 3 4 1016.3 1011.6 -
24/03:30am 20.1 18.5 2.5 31 8.5 CALM 0 0 0 0 1016.0 1011.3 -
24/03:00am 21.2 18.6 3.4 31 8.8 ESE 6 11 3 6 1015.9 1011.2 0.0
24/02:30am 20.1 17.8 2.9 32 8.4 WSW 4 9 2 5 1015.8 1011.1 -
24/02:00am 21.7 20.3 3.4 30 9.1 CALM 0 0 0 0 1015.8 1011.1 -
24/01:30am 21.8 19.6 3.5 30 9.1 WSW 4 7 2 4 1015.9 1011.2 -
24/01:00am 21.6 20.2 3.3 30 9.1 CALM 0 0 0 0 1016.3 1011.6 -
24/12:30am 24.0 20.2 3.9 27 10.2 SW 13 17 7 9 1016.4 1011.7 -
24/12:00am 22.6 19.2 4.2 30 9.3 SSW 11 15 6 8 1016.7 1012.0 -
 
Date/Time
WST
Temp
°C
App
Temp
°C
Dew
Point
Rel
Hum
%
Delta-T
°C
Wind Press
QNH
hPa
Press
MSL
hPa
Rain
since 9 am
mm
Dir
 
Spd
km/h
Gust
km/h
Spd
kts
Gust
kts
23/11:30pm 21.7 19.8 2.9 29 9.2 SSW 2 6 1 3 1017.1 1012.4 -
23/11:00pm 23.3 20.7 3.3 27 10.0 SSW 6 11 3 6 1017.3 1012.6 -
23/10:30pm 24.0 22.6 3.3 26 10.4 CALM 0 6 0 3 1017.4 1012.7 -
23/10:00pm 25.5 22.5 4.0 25 11.0 SSW 9 11 5 6 1017.5 1012.8 -
23/09:30pm 26.2 23.2 4.1 24 11.4 SSW 9 11 5 6 1017.4 1012.7 -
23/09:00pm 26.4 24.7 4.2 24 11.5 SSW 2 7 1 4 1017.3 1012.6 0.0
23/08:30pm 26.5 25.1 3.7 23 11.7 CALM 0 0 0 0 1017.0 1012.3 -
23/08:00pm 28.5 25.9 3.4 20 13.0 SSW 6 7 3 4 1016.8 1012.1 -
23/07:30pm 29.7 27.0 3.6 19 13.7 SSW 7 9 4 5 1016.3 1011.6 -
23/07:00pm 30.6 26.7 3.6 18 14.2 SW 13 15 7 8 1015.8 1011.1 -
23/06:30pm 31.6 27.4 3.6 17 14.8 SW 15 20 8 11 1015.3 1010.5 -
23/06:00pm 32.9 28.3 3.8 16 15.6 SW 17 22 9 12 1014.9 1010.2 -
23/05:30pm 33.6 28.4 3.4 15 16.1 WSW 20 30 11 16 1014.5 1009.8 -
23/05:00pm 34.2 28.7 3.9 15 16.4 SW 22 30 12 16 1014.3 1009.6 -
23/04:30pm 34.6 29.5 4.2 15 16.5 WSW 20 28 11 15 1014.4 1009.7 -
23/04:00pm 34.8 30.1 3.4 14 16.9 WSW 17 22 9 12 1014.3 1009.6 -
23/03:30pm 34.4 29.1 3.1 14 16.7 SSW 20 28 11 15 1014.4 1009.7 -
23/03:00pm 34.4 30.1 3.1 14 16.7 S 15 20 8 11 1014.5 1009.8 -
23/02:30pm 34.7 29.1 3.3 14 16.8 W 22 35 12 19 1014.7 1010.0 -
23/02:00pm 34.4 28.5 4.0 15 16.4 WSW 24 35 13 19 1014.9 1010.2 -
23/01:30pm 34.6 29.7 4.2 15 16.5 W 19 30 10 16 1015.0 1010.3 -
23/01:00pm 34.7 29.5 3.3 14 16.8 WSW 20 30 11 16 1015.3 1010.5 -
23/12:30pm 34.9 31.0 5.4 16 16.4 WSW 15 32 8 17 1015.7 1011.0 -
23/12:00pm 34.0 - 3.7 15 16.3 - - - - - 1016.1 1011.4 -
23/11:30am 32.5 28.5 5.1 18 14.9 SSW 15 24 8 13 1016.5 1011.8 -
23/11:00am 32.2 29.4 7.1 21 14.1 SW 11 17 6 9 1017.0 1012.3 -
23/10:30am 31.0 27.0 6.8 22 13.5 SSW 17 30 9 16 1017.4 1012.7 -
23/10:00am 29.9 26.0 7.2 24 12.6 S 17 24 9 13 1017.7 1013.0 -
23/09:00am 28.4 24.7 8.1 28 11.4 SSW 17 24 9 13 1017.7 1013.0 0.0
23/08:30am 27.4 23.4 8.3 30 10.7 SSW 19 24 10 13 1017.8 1013.1 0.0
23/08:00am 26.8 23.2 8.3 31 10.3 SSW 17 24 9 13 1017.7 1013.0 0.0
23/07:30am 26.2 22.3 7.3 30 10.3 S 17 24 9 13 1017.6 1012.9 0.0
23/07:00am 24.8 21.3 7.0 32 9.6 SSW 15 19 8 10 1017.3 1012.6 0.0
23/06:30am 23.5 20.6 6.7 34 9.0 SSW 11 13 6 7 1017.3 1012.6 0.0
23/06:00am 22.9 20.8 6.6 35 8.6 WSW 7 11 4 6 1017.1 1012.4 0.0
23/05:30am 23.8 20.5 6.6 33 9.2 SW 13 19 7 10 1016.8 1012.1 0.0
23/05:00am 23.9 20.6 6.2 32 9.4 SW 13 19 7 10 1016.4 1011.7 0.0
23/04:30am 24.0 20.6 5.8 31 9.6 WSW 13 15 7 8 1016.0 1011.3 0.0
23/04:00am 24.2 21.6 6.0 31 9.6 SW 9 11 5 6 1016.0 1011.3 0.0

Other Formats:

Comma delimited format used in spreadsheet applications
http://www.bom.gov.au/fwo/IDW60801/IDW60801.99312.axf

JavaScript Object Notation format (JSON) in row-major order
http://www.bom.gov.au/fwo/IDW60801/IDW60801.99312.json